sensor_id;sensor_type;location;lat;lon;timestamp;temperature;humidity
65582;DHT22;52231;40.090;18.348;2023-02-02T00:10:02;3.40;86.40
65582;DHT22;52231;40.090;18.348;2023-02-02T00:31:20;3.00;86.70
65582;DHT22;52231;40.090;18.348;2023-02-02T00:34:10;2.90;86.70
65582;DHT22;52231;40.090;18.348;2023-02-02T00:36:41;2.90;86.70
65582;DHT22;52231;40.090;18.348;2023-02-02T00:39:16;2.90;86.70
65582;DHT22;52231;40.090;18.348;2023-02-02T00:41:45;2.90;86.70
65582;DHT22;52231;40.090;18.348;2023-02-02T00:44:13;2.80;86.70
65582;DHT22;52231;40.090;18.348;2023-02-02T00:47:00;2.80;86.60
65582;DHT22;52231;40.090;18.348;2023-02-02T00:49:28;2.70;86.30
65582;DHT22;52231;40.090;18.348;2023-02-02T00:51:57;2.60;86.20
65582;DHT22;52231;40.090;18.348;2023-02-02T00:54:27;2.60;86.20
65582;DHT22;52231;40.090;18.348;2023-02-02T00:56:55;2.60;86.30
65582;DHT22;52231;40.090;18.348;2023-02-02T00:59:23;2.60;86.60
65582;DHT22;52231;40.090;18.348;2023-02-02T01:01:52;2.60;86.80
65582;DHT22;52231;40.090;18.348;2023-02-02T01:04:20;2.60;86.90
65582;DHT22;52231;40.090;18.348;2023-02-02T01:06:48;2.60;87.00
65582;DHT22;52231;40.090;18.348;2023-02-02T01:09:16;2.60;87.00
65582;DHT22;52231;40.090;18.348;2023-02-02T01:11:44;2.60;87.10
65582;DHT22;52231;40.090;18.348;2023-02-02T01:14:12;2.60;87.10
65582;DHT22;52231;40.090;18.348;2023-02-02T01:16:41;2.70;87.20
65582;DHT22;52231;40.090;18.348;2023-02-02T01:19:12;2.60;87.10
65582;DHT22;52231;40.090;18.348;2023-02-02T01:21:41;2.60;87.00
65582;DHT22;52231;40.090;18.348;2023-02-02T01:24:09;2.50;86.70
65582;DHT22;52231;40.090;18.348;2023-02-02T01:26:37;2.40;86.40
65582;DHT22;52231;40.090;18.348;2023-02-02T01:29:05;2.40;86.30
65582;DHT22;52231;40.090;18.348;2023-02-02T01:31:33;2.30;86.30
65582;DHT22;52231;40.090;18.348;2023-02-02T01:34:02;2.30;86.60
65582;DHT22;52231;40.090;18.348;2023-02-02T01:36:30;2.30;86.60
65582;DHT22;52231;40.090;18.348;2023-02-02T01:38:58;2.30;86.60
65582;DHT22;52231;40.090;18.348;2023-02-02T01:41:27;2.30;86.80
65582;DHT22;52231;40.090;18.348;2023-02-02T01:43:58;2.30;86.80
65582;DHT22;52231;40.090;18.348;2023-02-02T01:46:32;2.30;86.80
65582;DHT22;52231;40.090;18.348;2023-02-02T01:49:10;2.30;86.90
65582;DHT22;52231;40.090;18.348;2023-02-02T01:51:50;2.20;87.00
65582;DHT22;52231;40.090;18.348;2023-02-02T01:54:46;2.20;87.10
65582;DHT22;52231;40.090;18.348;2023-02-02T01:57:21;2.20;87.30
65582;DHT22;52231;40.090;18.348;2023-02-02T01:59:52;2.30;87.40
65582;DHT22;52231;40.090;18.348;2023-02-02T02:02:24;2.30;87.50
65582;DHT22;52231;40.090;18.348;2023-02-02T02:04:54;2.30;87.40
65582;DHT22;52231;40.090;18.348;2023-02-02T02:07:23;2.20;87.30
65582;DHT22;52231;40.090;18.348;2023-02-02T02:09:51;2.20;87.20
65582;DHT22;52231;40.090;18.348;2023-02-02T02:12:20;2.10;87.10
65582;DHT22;52231;40.090;18.348;2023-02-02T02:14:50;2.10;87.10
65582;DHT22;52231;40.090;18.348;2023-02-02T02:17:57;2.10;87.10
65582;DHT22;52231;40.090;18.348;2023-02-02T02:24:05;2.00;87.10
65582;DHT22;52231;40.090;18.348;2023-02-02T02:32:21;2.00;87.30
65582;DHT22;52231;40.090;18.348;2023-02-02T02:35:42;2.00;87.30
65582;DHT22;52231;40.090;18.348;2023-02-02T02:41:27;1.90;87.10
65582;DHT22;52231;40.090;18.348;2023-02-02T02:44:03;1.80;86.90
65582;DHT22;52231;40.090;18.348;2023-02-02T02:46:34;1.70;86.90
65582;DHT22;52231;40.090;18.348;2023-02-02T02:49:02;1.70;86.80
65582;DHT22;52231;40.090;18.348;2023-02-02T02:51:41;1.70;86.80
65582;DHT22;52231;40.090;18.348;2023-02-02T02:54:20;1.60;86.70
65582;DHT22;52231;40.090;18.348;2023-02-02T03:10:39;1.50;87.20
65582;DHT22;52231;40.090;18.348;2023-02-02T03:13:11;1.40;87.20
65582;DHT22;52231;40.090;18.348;2023-02-02T03:15:41;1.40;87.30
65582;DHT22;52231;40.090;18.348;2023-02-02T03:18:15;1.40;87.40
65582;DHT22;52231;40.090;18.348;2023-02-02T03:20:45;1.50;87.50
65582;DHT22;52231;40.090;18.348;2023-02-02T03:23:14;1.50;87.70
65582;DHT22;52231;40.090;18.348;2023-02-02T03:25:42;1.50;87.80
65582;DHT22;52231;40.090;18.348;2023-02-02T03:28:10;1.60;87.90
65582;DHT22;52231;40.090;18.348;2023-02-02T03:30:40;1.50;87.70
65582;DHT22;52231;40.090;18.348;2023-02-02T03:33:11;1.50;87.50
65582;DHT22;52231;40.090;18.348;2023-02-02T03:35:40;1.40;87.30
65582;DHT22;52231;40.090;18.348;2023-02-02T03:38:10;1.30;87.30
65582;DHT22;52231;40.090;18.348;2023-02-02T03:40:39;1.30;87.30
65582;DHT22;52231;40.090;18.348;2023-02-02T03:43:09;1.30;87.20
65582;DHT22;52231;40.090;18.348;2023-02-02T03:45:37;1.20;87.10
65582;DHT22;52231;40.090;18.348;2023-02-02T03:48:07;1.20;87.20
65582;DHT22;52231;40.090;18.348;2023-02-02T03:50:36;1.20;87.30
65582;DHT22;52231;40.090;18.348;2023-02-02T03:53:04;1.20;87.40
65582;DHT22;52231;40.090;18.348;2023-02-02T03:55:33;1.20;87.50
65582;DHT22;52231;40.090;18.348;2023-02-02T03:58:26;1.20;87.60
65582;DHT22;52231;40.090;18.348;2023-02-02T04:01:02;1.20;87.60
65582;DHT22;52231;40.090;18.348;2023-02-02T04:03:31;1.20;87.70
65582;DHT22;52231;40.090;18.348;2023-02-02T06:00:07;0.40;88.30
65582;DHT22;52231;40.090;18.348;2023-02-02T06:02:56;0.40;88.30
65582;DHT22;52231;40.090;18.348;2023-02-02T06:05:26;0.40;88.30
65582;DHT22;52231;40.090;18.348;2023-02-02T06:07:59;0.40;88.30
65582;DHT22;52231;40.090;18.348;2023-02-02T06:10:27;0.40;88.30
65582;DHT22;52231;40.090;18.348;2023-02-02T06:13:19;0.40;88.10
65582;DHT22;52231;40.090;18.348;2023-02-02T06:15:48;0.40;88.00
65582;DHT22;52231;40.090;18.348;2023-02-02T06:18:16;0.40;87.80
65582;DHT22;52231;40.090;18.348;2023-02-02T06:21:12;0.40;87.80
65582;DHT22;52231;40.090;18.348;2023-02-02T06:24:27;0.40;87.80
65582;DHT22;52231;40.090;18.348;2023-02-02T06:28:09;0.60;87.90
65582;DHT22;52231;40.090;18.348;2023-02-02T06:30:38;0.90;88.10
65582;DHT22;52231;40.090;18.348;2023-02-02T06:33:06;1.20;88.20
65582;DHT22;52231;40.090;18.348;2023-02-02T06:35:34;1.50;88.20
65582;DHT22;52231;40.090;18.348;2023-02-02T06:38:02;1.80;88.10
65582;DHT22;52231;40.090;18.348;2023-02-02T06:40:30;2.00;87.90
65582;DHT22;52231;40.090;18.348;2023-02-02T06:43:01;2.30;87.60
65582;DHT22;52231;40.090;18.348;2023-02-02T06:45:30;2.60;87.40
65582;DHT22;52231;40.090;18.348;2023-02-02T06:47:59;3.00;87.10
65582;DHT22;52231;40.090;18.348;2023-02-02T06:50:35;3.30;86.70
65582;DHT22;52231;40.090;18.348;2023-02-02T06:53:04;3.70;86.40
65582;DHT22;52231;40.090;18.348;2023-02-02T06:55:32;4.00;86.00
65582;DHT22;52231;40.090;18.348;2023-02-02T06:58:01;4.30;85.40
65582;DHT22;52231;40.090;18.348;2023-02-02T07:00:29;4.60;84.80
65582;DHT22;52231;40.090;18.348;2023-02-02T07:02:59;4.80;84.10
65582;DHT22;52231;40.090;18.348;2023-02-02T07:05:27;5.00;83.10
65582;DHT22;52231;40.090;18.348;2023-02-02T07:07:57;5.30;82.60
65582;DHT22;52231;40.090;18.348;2023-02-02T07:10:25;5.50;81.70
65582;DHT22;52231;40.090;18.348;2023-02-02T07:12:53;5.80;80.90
65582;DHT22;52231;40.090;18.348;2023-02-02T07:15:21;6.00;80.30
65582;DHT22;52231;40.090;18.348;2023-02-02T07:17:51;6.20;79.70
65582;DHT22;52231;40.090;18.348;2023-02-02T07:20:21;6.50;79.20
65582;DHT22;52231;40.090;18.348;2023-02-02T07:22:49;6.80;78.50
65582;DHT22;52231;40.090;18.348;2023-02-02T07:25:17;7.00;78.20
65582;DHT22;52231;40.090;18.348;2023-02-02T07:27:46;7.30;77.80
65582;DHT22;52231;40.090;18.348;2023-02-02T07:30:17;7.50;77.50
65582;DHT22;52231;40.090;18.348;2023-02-02T07:32:49;7.70;77.00
65582;DHT22;52231;40.090;18.348;2023-02-02T07:35:17;7.90;76.50
65582;DHT22;52231;40.090;18.348;2023-02-02T07:37:51;8.20;76.00
65582;DHT22;52231;40.090;18.348;2023-02-02T07:40:20;8.30;74.60
65582;DHT22;52231;40.090;18.348;2023-02-02T07:42:49;8.60;74.10
65582;DHT22;52231;40.090;18.348;2023-02-02T07:45:17;8.80;73.70
65582;DHT22;52231;40.090;18.348;2023-02-02T07:47:46;9.00;73.30
65582;DHT22;52231;40.090;18.348;2023-02-02T07:50:14;9.20;72.70
65582;DHT22;52231;40.090;18.348;2023-02-02T07:52:42;9.30;72.60
65582;DHT22;52231;40.090;18.348;2023-02-02T07:55:10;9.50;72.00
65582;DHT22;52231;40.090;18.348;2023-02-02T07:57:41;9.70;71.10
65582;DHT22;52231;40.090;18.348;2023-02-02T08:00:10;9.90;70.70
65582;DHT22;52231;40.090;18.348;2023-02-02T08:02:41;10.10;70.00
65582;DHT22;52231;40.090;18.348;2023-02-02T08:05:09;10.30;68.70
65582;DHT22;52231;40.090;18.348;2023-02-02T08:07:37;10.50;68.30
65582;DHT22;52231;40.090;18.348;2023-02-02T08:10:06;10.70;67.70
65582;DHT22;52231;40.090;18.348;2023-02-02T08:12:34;10.90;66.80
65582;DHT22;52231;40.090;18.348;2023-02-02T08:15:03;10.90;65.00
65582;DHT22;52231;40.090;18.348;2023-02-02T08:17:31;10.90;64.90
65582;DHT22;52231;40.090;18.348;2023-02-02T08:19:59;11.00;64.90
65582;DHT22;52231;40.090;18.348;2023-02-02T08:22:27;11.20;64.50
65582;DHT22;52231;40.090;18.348;2023-02-02T08:24:56;11.20;63.90
65582;DHT22;52231;40.090;18.348;2023-02-02T08:27:24;11.30;64.00
65582;DHT22;52231;40.090;18.348;2023-02-02T08:29:52;11.30;63.20
65582;DHT22;52231;40.090;18.348;2023-02-02T08:32:20;11.40;63.00
65582;DHT22;52231;40.090;18.348;2023-02-02T08:34:48;11.60;63.10
65582;DHT22;52231;40.090;18.348;2023-02-02T08:37:19;11.80;62.60
65582;DHT22;52231;40.090;18.348;2023-02-02T08:39:47;11.80;61.70
65582;DHT22;52231;40.090;18.348;2023-02-02T08:42:15;11.80;60.70
65582;DHT22;52231;40.090;18.348;2023-02-02T08:44:44;11.80;60.60
65582;DHT22;52231;40.090;18.348;2023-02-02T08:47:12;12.00;60.30
65582;DHT22;52231;40.090;18.348;2023-02-02T08:49:40;12.20;60.40
65582;DHT22;52231;40.090;18.348;2023-02-02T08:52:09;12.30;60.00
65582;DHT22;52231;40.090;18.348;2023-02-02T08:54:37;12.30;59.60
65582;DHT22;52231;40.090;18.348;2023-02-02T08:57:05;12.50;59.60
65582;DHT22;52231;40.090;18.348;2023-02-02T08:59:33;12.50;59.10
65582;DHT22;52231;40.090;18.348;2023-02-02T09:02:02;12.70;59.80
65582;DHT22;52231;40.090;18.348;2023-02-02T09:04:30;12.90;59.70
65582;DHT22;52231;40.090;18.348;2023-02-02T09:06:58;13.00;58.80
65582;DHT22;52231;40.090;18.348;2023-02-02T09:09:28;13.10;58.70
65582;DHT22;52231;40.090;18.348;2023-02-02T09:11:56;13.20;58.60
65582;DHT22;52231;40.090;18.348;2023-02-02T09:14:24;13.30;58.40
65582;DHT22;52231;40.090;18.348;2023-02-02T09:16:52;13.30;58.20
65582;DHT22;52231;40.090;18.348;2023-02-02T09:19:20;13.40;58.40
65582;DHT22;52231;40.090;18.348;2023-02-02T09:21:49;13.60;58.40
65582;DHT22;52231;40.090;18.348;2023-02-02T09:24:17;13.80;58.20
65582;DHT22;52231;40.090;18.348;2023-02-02T09:26:45;13.90;58.60
65582;DHT22;52231;40.090;18.348;2023-02-02T09:29:15;14.00;58.10
65582;DHT22;52231;40.090;18.348;2023-02-02T09:31:44;14.00;57.90
65582;DHT22;52231;40.090;18.348;2023-02-02T09:34:14;14.00;57.80
65582;DHT22;52231;40.090;18.348;2023-02-02T09:36:43;14.10;58.00
65582;DHT22;52231;40.090;18.348;2023-02-02T09:39:11;14.10;58.40
65582;DHT22;52231;40.090;18.348;2023-02-02T09:55:24;14.70;58.10
65582;DHT22;52231;40.090;18.348;2023-02-02T10:00:40;14.80;57.80
65582;DHT22;52231;40.090;18.348;2023-02-02T10:03:24;15.00;57.00
65582;DHT22;52231;40.090;18.348;2023-02-02T10:06:01;15.00;57.60
65582;DHT22;52231;40.090;18.348;2023-02-02T10:08:40;15.10;58.00
65582;DHT22;52231;40.090;18.348;2023-02-02T10:13:58;15.30;57.80
65582;DHT22;52231;40.090;18.348;2023-02-02T10:16:29;15.30;58.10
65582;DHT22;52231;40.090;18.348;2023-02-02T10:19:04;15.40;57.80
65582;DHT22;52231;40.090;18.348;2023-02-02T10:24:22;15.40;56.10
65582;DHT22;52231;40.090;18.348;2023-02-02T10:26:53;15.40;57.30
65582;DHT22;52231;40.090;18.348;2023-02-02T10:29:44;15.60;55.70
65582;DHT22;52231;40.090;18.348;2023-02-02T10:32:40;15.50;56.20
65582;DHT22;52231;40.090;18.348;2023-02-02T10:38:05;15.70;54.40
65582;DHT22;52231;40.090;18.348;2023-02-02T10:40:56;15.70;53.10
65582;DHT22;52231;40.090;18.348;2023-02-02T10:46:35;15.80;53.40
65582;DHT22;52231;40.090;18.348;2023-02-02T10:49:21;15.80;52.40
65582;DHT22;52231;40.090;18.348;2023-02-02T10:55:47;16.00;52.00
65582;DHT22;52231;40.090;18.348;2023-02-02T10:58:02;15.80;52.00
65582;DHT22;52231;40.090;18.348;2023-02-02T11:03:09;15.90;50.00
65582;DHT22;52231;40.090;18.348;2023-02-02T11:05:37;16.00;50.90
65582;DHT22;52231;40.090;18.348;2023-02-02T11:08:45;16.00;48.40
65582;DHT22;52231;40.090;18.348;2023-02-02T11:11:30;16.10;48.50
65582;DHT22;52231;40.090;18.348;2023-02-02T11:14:27;16.20;48.00
65582;DHT22;52231;40.090;18.348;2023-02-02T11:17:03;16.20;48.10
65582;DHT22;52231;40.090;18.348;2023-02-02T11:19:33;16.20;48.10
65582;DHT22;52231;40.090;18.348;2023-02-02T11:22:02;16.30;48.60
65582;DHT22;52231;40.090;18.348;2023-02-02T11:24:45;16.10;47.70
65582;DHT22;52231;40.090;18.348;2023-02-02T11:27:26;16.10;48.60
65582;DHT22;52231;40.090;18.348;2023-02-02T11:29:57;16.10;47.80
65582;DHT22;52231;40.090;18.348;2023-02-02T11:32:31;16.30;47.60
65582;DHT22;52231;40.090;18.348;2023-02-02T11:37:35;16.30;47.90
65582;DHT22;52231;40.090;18.348;2023-02-02T11:40:26;16.20;48.40
65582;DHT22;52231;40.090;18.348;2023-02-02T11:42:58;16.20;48.20
65582;DHT22;52231;40.090;18.348;2023-02-02T11:45:39;16.30;48.40
65582;DHT22;52231;40.090;18.348;2023-02-02T11:50:47;16.30;45.90
65582;DHT22;52231;40.090;18.348;2023-02-02T11:56:03;16.30;46.50
65582;DHT22;52231;40.090;18.348;2023-02-02T11:58:45;16.20;45.90
65582;DHT22;52231;40.090;18.348;2023-02-02T12:01:25;16.20;46.50
65582;DHT22;52231;40.090;18.348;2023-02-02T12:03:58;16.30;47.10
65582;DHT22;52231;40.090;18.348;2023-02-02T12:06:35;16.50;46.60
65582;DHT22;52231;40.090;18.348;2023-02-02T12:09:12;16.50;46.70
65582;DHT22;52231;40.090;18.348;2023-02-02T12:11:54;16.70;46.60
65582;DHT22;52231;40.090;18.348;2023-02-02T12:14:53;16.60;45.80
65582;DHT22;52231;40.090;18.348;2023-02-02T12:17:43;16.50;46.10
65582;DHT22;52231;40.090;18.348;2023-02-02T12:20:34;16.50;45.80
65582;DHT22;52231;40.090;18.348;2023-02-02T12:42:55;16.10;44.30
65582;DHT22;52231;40.090;18.348;2023-02-02T13:09:02;16.30;44.30
65582;DHT22;52231;40.090;18.348;2023-02-02T13:14:32;16.40;43.90
65582;DHT22;52231;40.090;18.348;2023-02-02T13:19:58;16.60;44.60
65582;DHT22;52231;40.090;18.348;2023-02-02T13:22:40;16.80;44.00
65582;DHT22;52231;40.090;18.348;2023-02-02T13:25:29;16.80;44.60
65582;DHT22;52231;40.090;18.348;2023-02-02T13:31:27;17.00;44.10
65582;DHT22;52231;40.090;18.348;2023-02-02T13:38:11;17.30;44.90
65582;DHT22;52231;40.090;18.348;2023-02-02T13:49:24;16.80;55.10
65582;DHT22;52231;40.090;18.348;2023-02-02T13:52:39;17.00;54.60
65582;DHT22;52231;40.090;18.348;2023-02-02T14:00:51;17.10;55.50
65582;DHT22;52231;40.090;18.348;2023-02-02T14:03:37;17.00;55.50
65582;DHT22;52231;40.090;18.348;2023-02-02T14:06:08;17.10;55.30
65582;DHT22;52231;40.090;18.348;2023-02-02T14:08:55;17.10;54.90
65582;DHT22;52231;40.090;18.348;2023-02-02T14:11:30;17.10;54.90
65582;DHT22;52231;40.090;18.348;2023-02-02T14:14:20;16.80;55.00
65582;DHT22;52231;40.090;18.348;2023-02-02T14:17:06;16.60;56.30
65582;DHT22;52231;40.090;18.348;2023-02-02T14:22:17;15.90;56.90
65582;DHT22;52231;40.090;18.348;2023-02-02T14:24:48;15.70;57.80
65582;DHT22;52231;40.090;18.348;2023-02-02T14:34:55;15.20;60.10
65582;DHT22;52231;40.090;18.348;2023-02-02T14:45:43;14.40;61.00
65582;DHT22;52231;40.090;18.348;2023-02-02T14:48:22;14.00;62.00
65582;DHT22;52231;40.090;18.348;2023-02-02T14:50:54;13.80;63.00
65582;DHT22;52231;40.090;18.348;2023-02-02T14:53:31;13.50;63.60
65582;DHT22;52231;40.090;18.348;2023-02-02T14:56:09;13.30;64.40
65582;DHT22;52231;40.090;18.348;2023-02-02T14:58:59;13.20;64.90
65582;DHT22;52231;40.090;18.348;2023-02-02T15:01:30;13.10;65.60
65582;DHT22;52231;40.090;18.348;2023-02-02T15:06:36;12.90;66.30
65582;DHT22;52231;40.090;18.348;2023-02-02T15:19:44;12.40;68.50
65582;DHT22;52231;40.090;18.348;2023-02-02T15:22:39;12.40;68.90
65582;DHT22;52231;40.090;18.348;2023-02-02T15:25:21;12.30;69.40
65582;DHT22;52231;40.090;18.348;2023-02-02T15:33:44;12.20;70.60
65582;DHT22;52231;40.090;18.348;2023-02-02T15:36:26;12.10;70.60
65582;DHT22;52231;40.090;18.348;2023-02-02T15:38:58;12.00;70.30
65582;DHT22;52231;40.090;18.348;2023-02-02T15:41:41;12.00;70.00
65582;DHT22;52231;40.090;18.348;2023-02-02T15:44:27;11.90;70.20
65582;DHT22;52231;40.090;18.348;2023-02-02T15:47:19;11.80;70.40
65582;DHT22;52231;40.090;18.348;2023-02-02T15:49:51;11.80;70.50
65582;DHT22;52231;40.090;18.348;2023-02-02T15:52:26;11.70;71.20
65582;DHT22;52231;40.090;18.348;2023-02-02T15:54:56;11.60;72.30
65582;DHT22;52231;40.090;18.348;2023-02-02T15:57:33;11.50;73.10
65582;DHT22;52231;40.090;18.348;2023-02-02T16:08:07;11.00;75.00
65582;DHT22;52231;40.090;18.348;2023-02-02T16:10:36;10.90;75.30
65582;DHT22;52231;40.090;18.348;2023-02-02T16:13:05;10.80;75.70
65582;DHT22;52231;40.090;18.348;2023-02-02T16:15:33;10.70;75.90
65582;DHT22;52231;40.090;18.348;2023-02-02T16:18:09;10.60;76.30
65582;DHT22;52231;40.090;18.348;2023-02-02T16:20:40;10.50;76.70
65582;DHT22;52231;40.090;18.348;2023-02-02T16:23:13;10.40;77.10
65582;DHT22;52231;40.090;18.348;2023-02-02T16:25:48;10.30;77.30
65582;DHT22;52231;40.090;18.348;2023-02-02T16:28:19;10.30;77.80
65582;DHT22;52231;40.090;18.348;2023-02-02T16:30:49;10.20;78.10
65582;DHT22;52231;40.090;18.348;2023-02-02T16:33:41;10.00;78.50
65582;DHT22;52231;40.090;18.348;2023-02-02T16:36:17;9.90;79.10
65582;DHT22;52231;40.090;18.348;2023-02-02T16:38:56;9.90;79.30
65582;DHT22;52231;40.090;18.348;2023-02-02T16:41:43;9.80;79.40
65582;DHT22;52231;40.090;18.348;2023-02-02T16:44:36;9.80;79.50
65582;DHT22;52231;40.090;18.348;2023-02-02T16:47:07;9.70;79.70
65582;DHT22;52231;40.090;18.348;2023-02-02T16:49:46;9.70;79.70
65582;DHT22;52231;40.090;18.348;2023-02-02T16:52:16;9.60;80.30
65582;DHT22;52231;40.090;18.348;2023-02-02T16:54:55;9.60;80.30
65582;DHT22;52231;40.090;18.348;2023-02-02T16:57:29;9.60;80.40
65582;DHT22;52231;40.090;18.348;2023-02-02T17:00:05;9.50;80.60
65582;DHT22;52231;40.090;18.348;2023-02-02T17:02:38;9.50;80.40
65582;DHT22;52231;40.090;18.348;2023-02-02T17:05:29;9.40;80.40
65582;DHT22;52231;40.090;18.348;2023-02-02T17:08:00;9.30;80.70
65582;DHT22;52231;40.090;18.348;2023-02-02T17:10:37;9.30;80.80
65582;DHT22;52231;40.090;18.348;2023-02-02T17:16:03;9.20;80.80
65582;DHT22;52231;40.090;18.348;2023-02-02T17:18:31;9.10;80.60
65582;DHT22;52231;40.090;18.348;2023-02-02T17:21:00;9.00;80.60
65582;DHT22;52231;40.090;18.348;2023-02-02T17:23:35;8.90;80.80
65582;DHT22;52231;40.090;18.348;2023-02-02T17:26:09;8.80;80.90
65582;DHT22;52231;40.090;18.348;2023-02-02T17:28:40;8.70;81.00
65582;DHT22;52231;40.090;18.348;2023-02-02T17:31:13;8.60;81.40
65582;DHT22;52231;40.090;18.348;2023-02-02T17:33:42;8.60;81.70
65582;DHT22;52231;40.090;18.348;2023-02-02T17:36:11;8.50;82.00
65582;DHT22;52231;40.090;18.348;2023-02-02T17:38:40;8.50;82.30
65582;DHT22;52231;40.090;18.348;2023-02-02T17:41:09;8.50;82.40
65582;DHT22;52231;40.090;18.348;2023-02-02T17:43:39;8.40;82.20
65582;DHT22;52231;40.090;18.348;2023-02-02T17:46:11;8.40;82.50
65582;DHT22;52231;40.090;18.348;2023-02-02T17:48:40;8.30;82.80
65582;DHT22;52231;40.090;18.348;2023-02-02T17:51:15;8.30;83.10
65582;DHT22;52231;40.090;18.348;2023-02-02T17:53:44;8.30;82.90
65582;DHT22;52231;40.090;18.348;2023-02-02T17:56:13;8.20;82.70
65582;DHT22;52231;40.090;18.348;2023-02-02T17:58:41;8.10;82.30
65582;DHT22;52231;40.090;18.348;2023-02-02T18:01:10;8.00;82.30
65582;DHT22;52231;40.090;18.348;2023-02-02T18:03:42;7.90;82.30
65582;DHT22;52231;40.090;18.348;2023-02-02T18:06:11;7.90;82.40
65582;DHT22;52231;40.090;18.348;2023-02-02T18:08:39;7.80;82.40
65582;DHT22;52231;40.090;18.348;2023-02-02T18:11:10;7.70;82.80
65582;DHT22;52231;40.090;18.348;2023-02-02T18:13:41;7.70;83.10
65582;DHT22;52231;40.090;18.348;2023-02-02T18:16:11;7.60;83.00
65582;DHT22;52231;40.090;18.348;2023-02-02T18:18:41;7.50;82.70
65582;DHT22;52231;40.090;18.348;2023-02-02T18:21:10;7.40;82.40
65582;DHT22;52231;40.090;18.348;2023-02-02T18:23:39;7.30;82.40
65582;DHT22;52231;40.090;18.348;2023-02-02T18:26:08;7.30;82.60
65582;DHT22;52231;40.090;18.348;2023-02-02T18:28:37;7.30;82.70
65582;DHT22;52231;40.090;18.348;2023-02-02T18:31:10;7.10;82.80
65582;DHT22;52231;40.090;18.348;2023-02-02T18:33:39;7.10;83.10
65582;DHT22;52231;40.090;18.348;2023-02-02T18:36:10;7.00;83.40
65582;DHT22;52231;40.090;18.348;2023-02-02T18:38:41;7.00;83.40
65582;DHT22;52231;40.090;18.348;2023-02-02T18:41:14;7.00;83.60
65582;DHT22;52231;40.090;18.348;2023-02-02T18:43:44;6.90;83.90
65582;DHT22;52231;40.090;18.348;2023-02-02T18:46:14;6.90;84.20
65582;DHT22;52231;40.090;18.348;2023-02-02T18:48:42;6.90;84.10
65582;DHT22;52231;40.090;18.348;2023-02-02T18:51:13;6.90;84.10
65582;DHT22;52231;40.090;18.348;2023-02-02T18:53:45;6.80;84.10
65582;DHT22;52231;40.090;18.348;2023-02-02T18:56:14;6.80;84.40
65582;DHT22;52231;40.090;18.348;2023-02-02T18:58:42;6.70;84.20
65582;DHT22;52231;40.090;18.348;2023-02-02T19:01:14;6.70;83.80
65582;DHT22;52231;40.090;18.348;2023-02-02T19:03:47;6.60;83.60
65582;DHT22;52231;40.090;18.348;2023-02-02T19:06:17;6.50;83.40
65582;DHT22;52231;40.090;18.348;2023-02-02T19:09:05;6.50;83.40
65582;DHT22;52231;40.090;18.348;2023-02-02T19:11:40;6.40;83.60
65582;DHT22;52231;40.090;18.348;2023-02-02T19:14:22;6.40;83.90
65582;DHT22;52231;40.090;18.348;2023-02-02T19:17:16;6.40;84.20
65582;DHT22;52231;40.090;18.348;2023-02-02T19:35:10;6.30;84.80
65582;DHT22;52231;40.090;18.348;2023-02-02T19:38:46;6.30;84.70
65582;DHT22;52231;40.090;18.348;2023-02-02T19:41:50;6.20;84.80
65582;DHT22;52231;40.090;18.348;2023-02-02T19:44:45;6.10;84.80
65582;DHT22;52231;40.090;18.348;2023-02-02T19:48:25;6.00;84.60
65582;DHT22;52231;40.090;18.348;2023-02-02T19:52:02;5.90;84.40
65582;DHT22;52231;40.090;18.348;2023-02-02T19:55:45;5.80;84.10
65582;DHT22;52231;40.090;18.348;2023-02-02T19:59:11;5.70;84.10
65582;DHT22;52231;40.090;18.348;2023-02-02T20:06:17;5.50;84.10
65582;DHT22;52231;40.090;18.348;2023-02-02T20:09:37;5.50;84.30
65582;DHT22;52231;40.090;18.348;2023-02-02T20:13:41;5.40;84.60
65582;DHT22;52231;40.090;18.348;2023-02-02T20:17:10;5.30;84.60
65582;DHT22;52231;40.090;18.348;2023-02-02T20:20:39;5.30;84.80
65582;DHT22;52231;40.090;18.348;2023-02-02T20:23:55;5.30;85.00
65582;DHT22;52231;40.090;18.348;2023-02-02T20:27:49;5.30;85.20
65582;DHT22;52231;40.090;18.348;2023-02-02T20:30:55;5.30;85.70
65582;DHT22;52231;40.090;18.348;2023-02-02T20:38:25;5.30;86.00
65582;DHT22;52231;40.090;18.348;2023-02-02T20:41:21;5.30;86.00
65582;DHT22;52231;40.090;18.348;2023-02-02T20:43:52;5.30;85.60
65582;DHT22;52231;40.090;18.348;2023-02-02T20:47:04;5.20;85.50
65582;DHT22;52231;40.090;18.348;2023-02-02T20:50:54;5.10;85.40
65582;DHT22;52231;40.090;18.348;2023-02-02T20:54:14;5.00;85.30
65582;DHT22;52231;40.090;18.348;2023-02-02T20:57:31;5.00;85.40
65582;DHT22;52231;40.090;18.348;2023-02-02T21:00:47;4.90;85.60
65582;DHT22;52231;40.090;18.348;2023-02-02T21:04:13;4.90;85.70
65582;DHT22;52231;40.090;18.348;2023-02-02T21:07:23;4.90;86.00
65582;DHT22;52231;40.090;18.348;2023-02-02T21:10:14;4.90;86.10
65582;DHT22;52231;40.090;18.348;2023-02-02T21:13:19;4.80;85.80
65582;DHT22;52231;40.090;18.348;2023-02-02T21:16:11;4.80;85.60
65582;DHT22;52231;40.090;18.348;2023-02-02T21:18:41;4.80;85.60
65582;DHT22;52231;40.090;18.348;2023-02-02T21:21:35;4.70;85.80
65582;DHT22;52231;40.090;18.348;2023-02-02T21:29:13;4.60;85.90
65582;DHT22;52231;40.090;18.348;2023-02-02T21:31:53;4.50;85.90
65582;DHT22;52231;40.090;18.348;2023-02-02T21:35:09;4.50;86.10
65582;DHT22;52231;40.090;18.348;2023-02-02T21:37:42;4.50;86.40
65582;DHT22;52231;40.090;18.348;2023-02-02T21:40:26;4.50;86.50
65582;DHT22;52231;40.090;18.348;2023-02-02T21:43:25;4.50;86.70
65582;DHT22;52231;40.090;18.348;2023-02-02T21:45:58;4.50;86.70
65582;DHT22;52231;40.090;18.348;2023-02-02T21:48:47;4.50;86.60
65582;DHT22;52231;40.090;18.348;2023-02-02T21:51:44;4.50;86.70
65582;DHT22;52231;40.090;18.348;2023-02-02T21:54:41;4.50;86.60
65582;DHT22;52231;40.090;18.348;2023-02-02T21:57:50;4.40;86.30
65582;DHT22;52231;40.090;18.348;2023-02-02T22:00:22;4.40;86.20
65582;DHT22;52231;40.090;18.348;2023-02-02T22:02:55;4.30;86.00
65582;DHT22;52231;40.090;18.348;2023-02-02T22:05:33;4.20;85.90
65582;DHT22;52231;40.090;18.348;2023-02-02T22:08:24;4.20;85.90
65582;DHT22;52231;40.090;18.348;2023-02-02T22:10:58;4.10;85.70
65582;DHT22;52231;40.090;18.348;2023-02-02T22:13:32;4.00;85.70
65582;DHT22;52231;40.090;18.348;2023-02-02T22:16:16;4.00;85.70
65582;DHT22;52231;40.090;18.348;2023-02-02T22:19:29;4.00;85.80
65582;DHT22;52231;40.090;18.348;2023-02-02T22:22:16;4.00;86.00
65582;DHT22;52231;40.090;18.348;2023-02-02T22:24:55;3.90;85.90
65582;DHT22;52231;40.090;18.348;2023-02-02T22:27:26;4.00;86.10
65582;DHT22;52231;40.090;18.348;2023-02-02T22:32:47;3.90;86.10